sensor_id;sensor_type;location;lat;lon;timestamp;P1;durP1;ratioP1;P2;durP2;ratioP2
31018;SDS011;17689;45.610;5.858;2022-10-23T00:00:28;5.30;;;1.80;;
31018;SDS011;17689;45.610;5.858;2022-10-23T00:02:55;4.47;;;1.70;;
31018;SDS011;17689;45.610;5.858;2022-10-23T00:05:21;7.00;;;1.80;;
31018;SDS011;17689;45.610;5.858;2022-10-23T00:07:51;3.03;;;1.67;;
31018;SDS011;17689;45.610;5.858;2022-10-23T00:10:18;3.30;;;1.50;;
31018;SDS011;17689;45.610;5.858;2022-10-23T00:12:44;5.13;;;1.83;;
31018;SDS011;17689;45.610;5.858;2022-10-23T00:15:11;5.33;;;1.77;;
31018;SDS011;17689;45.610;5.858;2022-10-23T00:17:37;5.20;;;1.70;;
31018;SDS011;17689;45.610;5.858;2022-10-23T00:20:04;4.00;;;1.70;;
31018;SDS011;17689;45.610;5.858;2022-10-23T00:22:31;6.60;;;1.93;;
31018;SDS011;17689;45.610;5.858;2022-10-23T00:24:57;3.50;;;1.67;;
31018;SDS011;17689;45.610;5.858;2022-10-23T00:27:23;4.67;;;2.03;;
31018;SDS011;17689;45.610;5.858;2022-10-23T00:29:49;5.60;;;1.70;;
31018;SDS011;17689;45.610;5.858;2022-10-23T00:32:16;5.07;;;1.73;;
31018;SDS011;17689;45.610;5.858;2022-10-23T00:34:42;4.40;;;1.87;;
31018;SDS011;17689;45.610;5.858;2022-10-23T00:37:08;6.10;;;1.60;;
31018;SDS011;17689;45.610;5.858;2022-10-23T00:39:34;5.20;;;1.80;;
31018;SDS011;17689;45.610;5.858;2022-10-23T00:42:00;2.57;;;1.90;;
31018;SDS011;17689;45.610;5.858;2022-10-23T00:46:56;6.03;;;2.07;;
31018;SDS011;17689;45.610;5.858;2022-10-23T00:49:23;6.23;;;1.90;;
31018;SDS011;17689;45.610;5.858;2022-10-23T00:51:50;5.97;;;2.20;;
31018;SDS011;17689;45.610;5.858;2022-10-23T00:54:18;3.30;;;1.90;;
31018;SDS011;17689;45.610;5.858;2022-10-23T00:56:46;4.63;;;2.23;;
31018;SDS011;17689;45.610;5.858;2022-10-23T00:59:12;3.33;;;2.10;;
31018;SDS011;17689;45.610;5.858;2022-10-23T01:01:39;5.23;;;2.00;;
31018;SDS011;17689;45.610;5.858;2022-10-23T01:04:05;4.27;;;1.93;;
31018;SDS011;17689;45.610;5.858;2022-10-23T01:16:34;4.67;;;2.53;;
31018;SDS011;17689;45.610;5.858;2022-10-23T01:21:53;3.73;;;2.10;;
31018;SDS011;17689;45.610;5.858;2022-10-23T01:29:26;3.60;;;1.90;;
31018;SDS011;17689;45.610;5.858;2022-10-23T01:31:56;3.30;;;2.00;;
31018;SDS011;17689;45.610;5.858;2022-10-23T01:34:29;5.10;;;2.30;;
31018;SDS011;17689;45.610;5.858;2022-10-23T01:36:56;4.87;;;2.00;;
31018;SDS011;17689;45.610;5.858;2022-10-23T01:39:25;5.73;;;2.10;;
31018;SDS011;17689;45.610;5.858;2022-10-23T01:41:54;6.70;;;2.10;;
31018;SDS011;17689;45.610;5.858;2022-10-23T01:44:31;6.00;;;2.20;;
31018;SDS011;17689;45.610;5.858;2022-10-23T01:46:58;7.53;;;2.33;;
31018;SDS011;17689;45.610;5.858;2022-10-23T01:49:24;8.10;;;2.10;;
31018;SDS011;17689;45.610;5.858;2022-10-23T01:51:51;2.83;;;1.87;;
31018;SDS011;17689;45.610;5.858;2022-10-23T01:54:19;5.00;;;2.13;;
31018;SDS011;17689;45.610;5.858;2022-10-23T01:56:47;4.87;;;2.00;;
31018;SDS011;17689;45.610;5.858;2022-10-23T01:59:21;5.43;;;2.00;;
31018;SDS011;17689;45.610;5.858;2022-10-23T02:01:50;4.60;;;2.00;;
31018;SDS011;17689;45.610;5.858;2022-10-23T02:04:18;3.83;;;2.20;;
31018;SDS011;17689;45.610;5.858;2022-10-23T02:06:46;6.20;;;2.03;;
31018;SDS011;17689;45.610;5.858;2022-10-23T02:09:12;3.60;;;1.90;;
31018;SDS011;17689;45.610;5.858;2022-10-23T02:11:41;4.40;;;2.23;;
31018;SDS011;17689;45.610;5.858;2022-10-23T02:17:09;5.50;;;2.10;;
31018;SDS011;17689;45.610;5.858;2022-10-23T02:19:54;5.37;;;2.03;;
31018;SDS011;17689;45.610;5.858;2022-10-23T02:22:24;4.20;;;1.83;;
31018;SDS011;17689;45.610;5.858;2022-10-23T02:25:04;2.73;;;1.90;;
31018;SDS011;17689;45.610;5.858;2022-10-23T02:27:34;2.97;;;2.03;;
31018;SDS011;17689;45.610;5.858;2022-10-23T02:30:09;2.50;;;1.70;;
31018;SDS011;17689;45.610;5.858;2022-10-23T02:32:36;5.20;;;1.90;;
31018;SDS011;17689;45.610;5.858;2022-10-23T02:35:03;3.80;;;1.80;;
31018;SDS011;17689;45.610;5.858;2022-10-23T02:37:30;4.33;;;1.80;;
31018;SDS011;17689;45.610;5.858;2022-10-23T02:39:56;6.33;;;2.37;;
31018;SDS011;17689;45.610;5.858;2022-10-23T02:42:30;2.97;;;1.90;;
31018;SDS011;17689;45.610;5.858;2022-10-23T02:45:10;2.73;;;2.00;;
31018;SDS011;17689;45.610;5.858;2022-10-23T02:52:38;5.43;;;1.80;;
31018;SDS011;17689;45.610;5.858;2022-10-23T02:57:55;5.10;;;1.90;;
31018;SDS011;17689;45.610;5.858;2022-10-23T03:00:22;2.87;;;1.73;;
31018;SDS011;17689;45.610;5.858;2022-10-23T03:02:59;3.20;;;1.90;;
31018;SDS011;17689;45.610;5.858;2022-10-23T03:05:27;5.97;;;2.07;;
31018;SDS011;17689;45.610;5.858;2022-10-23T03:07:54;5.60;;;1.90;;
31018;SDS011;17689;45.610;5.858;2022-10-23T03:10:20;4.83;;;1.90;;
31018;SDS011;17689;45.610;5.858;2022-10-23T03:12:46;3.23;;;1.63;;
31018;SDS011;17689;45.610;5.858;2022-10-23T03:15:13;4.13;;;1.80;;
31018;SDS011;17689;45.610;5.858;2022-10-23T03:17:39;2.87;;;1.87;;
31018;SDS011;17689;45.610;5.858;2022-10-23T03:20:06;3.87;;;2.00;;
31018;SDS011;17689;45.610;5.858;2022-10-23T03:22:32;7.23;;;2.10;;
31018;SDS011;17689;45.610;5.858;2022-10-23T03:24:59;4.53;;;1.80;;
31018;SDS011;17689;45.610;5.858;2022-10-23T03:27:25;4.27;;;1.73;;
31018;SDS011;17689;45.610;5.858;2022-10-23T03:29:51;6.13;;;1.80;;
31018;SDS011;17689;45.610;5.858;2022-10-23T03:32:17;5.53;;;1.87;;
31018;SDS011;17689;45.610;5.858;2022-10-23T03:34:43;5.63;;;1.97;;
31018;SDS011;17689;45.610;5.858;2022-10-23T03:37:09;5.20;;;1.80;;
31018;SDS011;17689;45.610;5.858;2022-10-23T03:39:36;7.77;;;1.93;;
31018;SDS011;17689;45.610;5.858;2022-10-23T03:42:02;3.87;;;1.60;;
31018;SDS011;17689;45.610;5.858;2022-10-23T03:44:28;4.63;;;2.00;;
31018;SDS011;17689;45.610;5.858;2022-10-23T03:46:55;3.07;;;1.63;;
31018;SDS011;17689;45.610;5.858;2022-10-23T03:49:21;4.10;;;2.10;;
31018;SDS011;17689;45.610;5.858;2022-10-23T03:51:47;6.30;;;2.00;;
31018;SDS011;17689;45.610;5.858;2022-10-23T03:54:19;4.20;;;1.73;;
31018;SDS011;17689;45.610;5.858;2022-10-23T03:56:45;4.20;;;1.73;;
31018;SDS011;17689;45.610;5.858;2022-10-23T03:59:11;4.20;;;1.90;;
31018;SDS011;17689;45.610;5.858;2022-10-23T04:01:37;2.87;;;1.80;;
31018;SDS011;17689;45.610;5.858;2022-10-23T04:04:03;5.17;;;1.90;;
31018;SDS011;17689;45.610;5.858;2022-10-23T04:06:29;4.53;;;1.70;;
31018;SDS011;17689;45.610;5.858;2022-10-23T04:09:01;5.10;;;1.70;;
31018;SDS011;17689;45.610;5.858;2022-10-23T04:11:27;3.60;;;2.17;;
31018;SDS011;17689;45.610;5.858;2022-10-23T04:13:53;4.93;;;1.73;;
31018;SDS011;17689;45.610;5.858;2022-10-23T04:16:19;5.20;;;2.03;;
31018;SDS011;17689;45.610;5.858;2022-10-23T04:18:46;5.27;;;1.80;;
31018;SDS011;17689;45.610;5.858;2022-10-23T04:21:12;4.07;;;1.80;;
31018;SDS011;17689;45.610;5.858;2022-10-23T04:23:38;6.00;;;1.70;;
31018;SDS011;17689;45.610;5.858;2022-10-23T04:26:04;2.70;;;1.73;;
31018;SDS011;17689;45.610;5.858;2022-10-23T04:28:30;6.07;;;1.70;;
31018;SDS011;17689;45.610;5.858;2022-10-23T04:30:57;5.57;;;1.90;;
31018;SDS011;17689;45.610;5.858;2022-10-23T04:33:23;4.13;;;1.77;;
31018;SDS011;17689;45.610;5.858;2022-10-23T04:35:49;1.80;;;1.40;;
31018;SDS011;17689;45.610;5.858;2022-10-23T04:38:15;5.33;;;2.03;;
31018;SDS011;17689;45.610;5.858;2022-10-23T04:40:41;3.37;;;1.60;;
31018;SDS011;17689;45.610;5.858;2022-10-23T04:43:08;4.03;;;1.63;;
31018;SDS011;17689;45.610;5.858;2022-10-23T04:45:34;3.50;;;1.80;;
31018;SDS011;17689;45.610;5.858;2022-10-23T04:48:00;3.53;;;1.97;;
31018;SDS011;17689;45.610;5.858;2022-10-23T04:50:26;4.77;;;1.90;;
31018;SDS011;17689;45.610;5.858;2022-10-23T04:52:53;4.53;;;2.00;;
31018;SDS011;17689;45.610;5.858;2022-10-23T04:55:19;3.53;;;1.80;;
31018;SDS011;17689;45.610;5.858;2022-10-23T04:57:45;5.03;;;1.90;;
31018;SDS011;17689;45.610;5.858;2022-10-23T05:00:12;5.37;;;2.00;;
31018;SDS011;17689;45.610;5.858;2022-10-23T05:02:38;2.53;;;1.50;;
31018;SDS011;17689;45.610;5.858;2022-10-23T05:05:05;3.53;;;2.10;;
31018;SDS011;17689;45.610;5.858;2022-10-23T05:07:32;5.80;;;1.90;;
31018;SDS011;17689;45.610;5.858;2022-10-23T05:09:58;5.10;;;2.33;;
31018;SDS011;17689;45.610;5.858;2022-10-23T05:12:25;4.00;;;1.70;;
31018;SDS011;17689;45.610;5.858;2022-10-23T05:14:51;2.20;;;1.97;;
31018;SDS011;17689;45.610;5.858;2022-10-23T05:17:19;5.50;;;3.00;;
31018;SDS011;17689;45.610;5.858;2022-10-23T05:19:54;4.57;;;2.90;;
31018;SDS011;17689;45.610;5.858;2022-10-23T05:22:21;5.17;;;2.93;;
31018;SDS011;17689;45.610;5.858;2022-10-23T05:24:50;3.40;;;2.80;;
31018;SDS011;17689;45.610;5.858;2022-10-23T05:27:16;4.00;;;2.97;;
31018;SDS011;17689;45.610;5.858;2022-10-23T05:29:43;4.87;;;2.70;;
31018;SDS011;17689;45.610;5.858;2022-10-23T05:32:09;4.47;;;2.60;;
31018;SDS011;17689;45.610;5.858;2022-10-23T05:34:36;3.07;;;2.50;;
31018;SDS011;17689;45.610;5.858;2022-10-23T05:37:03;8.30;;;2.70;;
31018;SDS011;17689;45.610;5.858;2022-10-23T05:39:31;4.10;;;2.47;;
31018;SDS011;17689;45.610;5.858;2022-10-23T05:41:57;4.50;;;2.40;;
31018;SDS011;17689;45.610;5.858;2022-10-23T05:44:23;2.80;;;2.20;;
31018;SDS011;17689;45.610;5.858;2022-10-23T05:46:50;3.83;;;2.30;;
31018;SDS011;17689;45.610;5.858;2022-10-23T05:49:16;4.60;;;2.50;;
31018;SDS011;17689;45.610;5.858;2022-10-23T05:51:42;7.30;;;2.50;;
31018;SDS011;17689;45.610;5.858;2022-10-23T05:54:08;6.63;;;2.90;;
31018;SDS011;17689;45.610;5.858;2022-10-23T05:56:35;4.70;;;2.50;;
31018;SDS011;17689;45.610;5.858;2022-10-23T05:59:02;5.47;;;2.30;;
31018;SDS011;17689;45.610;5.858;2022-10-23T06:01:28;4.57;;;2.27;;
31018;SDS011;17689;45.610;5.858;2022-10-23T06:03:54;3.40;;;2.40;;
31018;SDS011;17689;45.610;5.858;2022-10-23T06:06:20;6.13;;;2.40;;
31018;SDS011;17689;45.610;5.858;2022-10-23T06:08:47;8.10;;;2.40;;
31018;SDS011;17689;45.610;5.858;2022-10-23T06:11:13;5.67;;;2.30;;
31018;SDS011;17689;45.610;5.858;2022-10-23T06:13:43;3.47;;;2.40;;
31018;SDS011;17689;45.610;5.858;2022-10-23T06:16:10;4.67;;;2.60;;
31018;SDS011;17689;45.610;5.858;2022-10-23T06:18:37;4.57;;;2.70;;
31018;SDS011;17689;45.610;5.858;2022-10-23T06:21:03;5.40;;;2.73;;
31018;SDS011;17689;45.610;5.858;2022-10-23T06:23:33;3.67;;;2.43;;
31018;SDS011;17689;45.610;5.858;2022-10-23T06:25:59;5.00;;;2.40;;
31018;SDS011;17689;45.610;5.858;2022-10-23T06:28:25;5.23;;;2.80;;
31018;SDS011;17689;45.610;5.858;2022-10-23T06:30:52;5.37;;;3.00;;
31018;SDS011;17689;45.610;5.858;2022-10-23T06:33:18;4.23;;;2.60;;
31018;SDS011;17689;45.610;5.858;2022-10-23T06:35:44;4.00;;;2.63;;
31018;SDS011;17689;45.610;5.858;2022-10-23T06:38:11;4.53;;;2.87;;
31018;SDS011;17689;45.610;5.858;2022-10-23T06:40:37;6.57;;;3.20;;
31018;SDS011;17689;45.610;5.858;2022-10-23T06:43:03;4.20;;;3.00;;
31018;SDS011;17689;45.610;5.858;2022-10-23T06:45:31;5.23;;;3.00;;
31018;SDS011;17689;45.610;5.858;2022-10-23T06:47:58;3.87;;;2.90;;
31018;SDS011;17689;45.610;5.858;2022-10-23T06:50:25;8.23;;;2.73;;
31018;SDS011;17689;45.610;5.858;2022-10-23T06:52:51;4.47;;;2.67;;
31018;SDS011;17689;45.610;5.858;2022-10-23T06:55:18;5.23;;;2.50;;
31018;SDS011;17689;45.610;5.858;2022-10-23T06:57:44;4.43;;;2.60;;
31018;SDS011;17689;45.610;5.858;2022-10-23T07:00:11;5.10;;;2.60;;
31018;SDS011;17689;45.610;5.858;2022-10-23T07:02:37;4.80;;;2.70;;
31018;SDS011;17689;45.610;5.858;2022-10-23T07:05:03;5.17;;;2.43;;
31018;SDS011;17689;45.610;5.858;2022-10-23T07:07:30;5.40;;;2.67;;
31018;SDS011;17689;45.610;5.858;2022-10-23T07:09:56;6.30;;;2.80;;
31018;SDS011;17689;45.610;5.858;2022-10-23T07:12:22;4.77;;;2.50;;
31018;SDS011;17689;45.610;5.858;2022-10-23T07:14:49;3.77;;;2.43;;
31018;SDS011;17689;45.610;5.858;2022-10-23T07:17:15;3.83;;;2.43;;
31018;SDS011;17689;45.610;5.858;2022-10-23T07:19:41;3.90;;;2.50;;
31018;SDS011;17689;45.610;5.858;2022-10-23T07:22:07;5.17;;;2.83;;
31018;SDS011;17689;45.610;5.858;2022-10-23T07:24:33;4.47;;;2.33;;
31018;SDS011;17689;45.610;5.858;2022-10-23T07:27:02;4.13;;;3.03;;
31018;SDS011;17689;45.610;5.858;2022-10-23T07:29:29;5.77;;;3.50;;
31018;SDS011;17689;45.610;5.858;2022-10-23T07:31:55;7.03;;;3.30;;
31018;SDS011;17689;45.610;5.858;2022-10-23T07:34:22;5.67;;;3.03;;
31018;SDS011;17689;45.610;5.858;2022-10-23T07:36:48;6.93;;;3.50;;
31018;SDS011;17689;45.610;5.858;2022-10-23T07:39:15;6.67;;;3.30;;
31018;SDS011;17689;45.610;5.858;2022-10-23T07:41:41;8.33;;;2.87;;
31018;SDS011;17689;45.610;5.858;2022-10-23T07:44:07;9.23;;;3.20;;
31018;SDS011;17689;45.610;5.858;2022-10-23T07:46:33;6.90;;;3.30;;
31018;SDS011;17689;45.610;5.858;2022-10-23T07:48:59;3.63;;;2.90;;
31018;SDS011;17689;45.610;5.858;2022-10-23T07:51:26;7.27;;;2.67;;
31018;SDS011;17689;45.610;5.858;2022-10-23T07:53:52;4.50;;;2.57;;
31018;SDS011;17689;45.610;5.858;2022-10-23T07:56:22;8.70;;;3.33;;
31018;SDS011;17689;45.610;5.858;2022-10-23T07:58:49;7.60;;;2.90;;
31018;SDS011;17689;45.610;5.858;2022-10-23T08:01:18;6.30;;;2.87;;
31018;SDS011;17689;45.610;5.858;2022-10-23T08:03:45;5.03;;;2.83;;
31018;SDS011;17689;45.610;5.858;2022-10-23T08:06:11;4.97;;;3.10;;
31018;SDS011;17689;45.610;5.858;2022-10-23T08:08:37;6.73;;;3.10;;
31018;SDS011;17689;45.610;5.858;2022-10-23T08:11:04;5.83;;;3.50;;
31018;SDS011;17689;45.610;5.858;2022-10-23T08:13:30;4.67;;;3.03;;
31018;SDS011;17689;45.610;5.858;2022-10-23T08:15:56;6.00;;;3.60;;
31018;SDS011;17689;45.610;5.858;2022-10-23T08:18:23;5.37;;;3.70;;
31018;SDS011;17689;45.610;5.858;2022-10-23T08:20:49;5.20;;;3.20;;
31018;SDS011;17689;45.610;5.858;2022-10-23T08:23:17;6.00;;;3.90;;
31018;SDS011;17689;45.610;5.858;2022-10-23T08:25:43;6.23;;;3.97;;
31018;SDS011;17689;45.610;5.858;2022-10-23T08:28:09;6.40;;;4.20;;
31018;SDS011;17689;45.610;5.858;2022-10-23T08:30:36;6.17;;;3.47;;
31018;SDS011;17689;45.610;5.858;2022-10-23T08:33:03;7.80;;;4.27;;
31018;SDS011;17689;45.610;5.858;2022-10-23T08:35:29;12.23;;;6.90;;
31018;SDS011;17689;45.610;5.858;2022-10-23T08:37:55;20.63;;;10.73;;
31018;SDS011;17689;45.610;5.858;2022-10-23T08:40:22;18.13;;;11.57;;
31018;SDS011;17689;45.610;5.858;2022-10-23T08:42:56;20.40;;;10.17;;
31018;SDS011;17689;45.610;5.858;2022-10-23T08:45:32;13.13;;;8.70;;
31018;SDS011;17689;45.610;5.858;2022-10-23T08:48:03;15.17;;;8.63;;
31018;SDS011;17689;45.610;5.858;2022-10-23T08:50:36;9.47;;;6.73;;
31018;SDS011;17689;45.610;5.858;2022-10-23T08:53:10;11.53;;;6.37;;
31018;SDS011;17689;45.610;5.858;2022-10-23T08:55:45;10.63;;;5.30;;
31018;SDS011;17689;45.610;5.858;2022-10-23T08:58:17;12.07;;;5.80;;
31018;SDS011;17689;45.610;5.858;2022-10-23T09:00:45;7.10;;;5.17;;
31018;SDS011;17689;45.610;5.858;2022-10-23T09:03:12;8.80;;;5.13;;
31018;SDS011;17689;45.610;5.858;2022-10-23T09:11:03;7.10;;;5.30;;
31018;SDS011;17689;45.610;5.858;2022-10-23T09:13:47;7.07;;;5.53;;
31018;SDS011;17689;45.610;5.858;2022-10-23T09:18:55;9.90;;;4.87;;
31018;SDS011;17689;45.610;5.858;2022-10-23T09:21:28;6.77;;;4.67;;
31018;SDS011;17689;45.610;5.858;2022-10-23T09:23:55;8.90;;;5.10;;
31018;SDS011;17689;45.610;5.858;2022-10-23T09:26:21;7.73;;;4.87;;
31018;SDS011;17689;45.610;5.858;2022-10-23T09:28:51;8.37;;;5.00;;
31018;SDS011;17689;45.610;5.858;2022-10-23T09:31:20;8.67;;;4.83;;
31018;SDS011;17689;45.610;5.858;2022-10-23T09:33:55;8.33;;;5.20;;
31018;SDS011;17689;45.610;5.858;2022-10-23T09:36:21;8.07;;;4.80;;
31018;SDS011;17689;45.610;5.858;2022-10-23T09:38:51;6.47;;;5.20;;
31018;SDS011;17689;45.610;5.858;2022-10-23T09:41:19;7.63;;;4.90;;
31018;SDS011;17689;45.610;5.858;2022-10-23T09:43:58;5.97;;;4.83;;
31018;SDS011;17689;45.610;5.858;2022-10-23T09:46:24;8.00;;;5.30;;
31018;SDS011;17689;45.610;5.858;2022-10-23T09:49:01;7.50;;;4.90;;
31018;SDS011;17689;45.610;5.858;2022-10-23T09:51:27;7.97;;;4.90;;
31018;SDS011;17689;45.610;5.858;2022-10-23T09:53:54;8.50;;;5.37;;
31018;SDS011;17689;45.610;5.858;2022-10-23T09:56:38;16.00;;;8.27;;
31018;SDS011;17689;45.610;5.858;2022-10-23T09:59:26;12.80;;;6.50;;
31018;SDS011;17689;45.610;5.858;2022-10-23T10:01:53;16.03;;;7.97;;
31018;SDS011;17689;45.610;5.858;2022-10-23T10:04:29;11.97;;;6.07;;
31018;SDS011;17689;45.610;5.858;2022-10-23T10:06:56;10.63;;;6.07;;
31018;SDS011;17689;45.610;5.858;2022-10-23T10:09:23;16.20;;;11.30;;
31018;SDS011;17689;45.610;5.858;2022-10-23T10:11:50;24.07;;;15.83;;
31018;SDS011;17689;45.610;5.858;2022-10-23T10:27:37;9.43;;;6.03;;
31018;SDS011;17689;45.610;5.858;2022-10-23T10:32:39;10.33;;;5.33;;
31018;SDS011;17689;45.610;5.858;2022-10-23T10:38:08;9.70;;;5.90;;
31018;SDS011;17689;45.610;5.858;2022-10-23T10:40:41;7.60;;;4.63;;
31018;SDS011;17689;45.610;5.858;2022-10-23T10:50:52;6.67;;;4.13;;
31018;SDS011;17689;45.610;5.858;2022-10-23T10:55:49;6.33;;;3.70;;
31018;SDS011;17689;45.610;5.858;2022-10-23T11:01:21;7.50;;;3.20;;
31018;SDS011;17689;45.610;5.858;2022-10-23T11:04:00;8.67;;;3.20;;
31018;SDS011;17689;45.610;5.858;2022-10-23T11:06:27;5.97;;;3.30;;
31018;SDS011;17689;45.610;5.858;2022-10-23T11:08:54;5.37;;;3.20;;
31018;SDS011;17689;45.610;5.858;2022-10-23T11:11:35;5.07;;;3.00;;
31018;SDS011;17689;45.610;5.858;2022-10-23T11:14:04;4.13;;;3.10;;
31018;SDS011;17689;45.610;5.858;2022-10-23T11:16:36;5.03;;;2.83;;
31018;SDS011;17689;45.610;5.858;2022-10-23T11:37:16;5.17;;;4.20;;
31018;SDS011;17689;45.610;5.858;2022-10-23T11:39:52;8.23;;;4.50;;
31018;SDS011;17689;45.610;5.858;2022-10-23T11:48:18;6.40;;;3.93;;
31018;SDS011;17689;45.610;5.858;2022-10-23T11:53:36;5.37;;;3.80;;
31018;SDS011;17689;45.610;5.858;2022-10-23T11:56:04;6.40;;;4.10;;
31018;SDS011;17689;45.610;5.858;2022-10-23T11:58:50;6.13;;;3.87;;
31018;SDS011;17689;45.610;5.858;2022-10-23T12:01:18;6.67;;;3.60;;
31018;SDS011;17689;45.610;5.858;2022-10-23T12:03:50;5.37;;;3.47;;
31018;SDS011;17689;45.610;5.858;2022-10-23T12:06:21;4.83;;;3.60;;
31018;SDS011;17689;45.610;5.858;2022-10-23T12:08:50;7.23;;;3.03;;
31018;SDS011;17689;45.610;5.858;2022-10-23T12:11:38;3.93;;;3.10;;
31018;SDS011;17689;45.610;5.858;2022-10-23T12:16:52;4.13;;;3.17;;
31018;SDS011;17689;45.610;5.858;2022-10-23T12:19:23;5.60;;;3.20;;
31018;SDS011;17689;45.610;5.858;2022-10-23T12:21:51;4.97;;;3.20;;
31018;SDS011;17689;45.610;5.858;2022-10-23T12:29:54;4.57;;;2.90;;
31018;SDS011;17689;45.610;5.858;2022-10-23T12:32:29;4.27;;;2.90;;
31018;SDS011;17689;45.610;5.858;2022-10-23T12:37:46;4.97;;;3.10;;
31018;SDS011;17689;45.610;5.858;2022-10-23T12:40:16;5.93;;;3.13;;
31018;SDS011;17689;45.610;5.858;2022-10-23T12:42:53;3.93;;;2.83;;
31018;SDS011;17689;45.610;5.858;2022-10-23T12:45:23;5.10;;;2.73;;
31018;SDS011;17689;45.610;5.858;2022-10-23T12:47:51;5.70;;;3.07;;
31018;SDS011;17689;45.610;5.858;2022-10-23T12:52:50;7.63;;;3.30;;
31018;SDS011;17689;45.610;5.858;2022-10-23T12:55:17;6.47;;;3.03;;
31018;SDS011;17689;45.610;5.858;2022-10-23T12:57:43;3.63;;;2.80;;
31018;SDS011;17689;45.610;5.858;2022-10-23T13:00:13;5.73;;;2.83;;
31018;SDS011;17689;45.610;5.858;2022-10-23T13:02:40;6.73;;;2.80;;
31018;SDS011;17689;45.610;5.858;2022-10-23T13:05:07;5.87;;;2.73;;
31018;SDS011;17689;45.610;5.858;2022-10-23T13:07:40;6.17;;;2.73;;
31018;SDS011;17689;45.610;5.858;2022-10-23T13:10:10;5.17;;;2.60;;
31018;SDS011;17689;45.610;5.858;2022-10-23T13:12:38;5.33;;;3.10;;
31018;SDS011;17689;45.610;5.858;2022-10-23T13:17:33;8.40;;;3.30;;
31018;SDS011;17689;45.610;5.858;2022-10-23T13:20:19;9.27;;;3.20;;
31018;SDS011;17689;45.610;5.858;2022-10-23T13:22:47;6.37;;;3.10;;
31018;SDS011;17689;45.610;5.858;2022-10-23T13:25:20;5.03;;;3.27;;
31018;SDS011;17689;45.610;5.858;2022-10-23T13:27:47;4.17;;;2.93;;
31018;SDS011;17689;45.610;5.858;2022-10-23T13:30:34;5.53;;;3.00;;
31018;SDS011;17689;45.610;5.858;2022-10-23T13:33:12;5.70;;;2.83;;
31018;SDS011;17689;45.610;5.858;2022-10-23T13:35:38;5.30;;;2.80;;
31018;SDS011;17689;45.610;5.858;2022-10-23T13:38:10;5.47;;;2.67;;
31018;SDS011;17689;45.610;5.858;2022-10-23T13:40:36;3.03;;;2.60;;
31018;SDS011;17689;45.610;5.858;2022-10-23T13:43:04;4.30;;;2.57;;
31018;SDS011;17689;45.610;5.858;2022-10-23T13:45:35;4.37;;;2.33;;
31018;SDS011;17689;45.610;5.858;2022-10-23T13:48:09;4.27;;;2.77;;
31018;SDS011;17689;45.610;5.858;2022-10-23T13:50:39;7.43;;;2.97;;
31018;SDS011;17689;45.610;5.858;2022-10-23T13:53:07;6.43;;;2.97;;
31018;SDS011;17689;45.610;5.858;2022-10-23T13:55:33;4.57;;;2.83;;
31018;SDS011;17689;45.610;5.858;2022-10-23T13:58:00;4.67;;;3.20;;
31018;SDS011;17689;45.610;5.858;2022-10-23T14:00:27;5.50;;;3.17;;
31018;SDS011;17689;45.610;5.858;2022-10-23T14:02:53;5.30;;;3.07;;
31018;SDS011;17689;45.610;5.858;2022-10-23T14:05:19;5.53;;;2.90;;
31018;SDS011;17689;45.610;5.858;2022-10-23T14:07:45;4.17;;;2.53;;
31018;SDS011;17689;45.610;5.858;2022-10-23T14:10:11;5.03;;;2.67;;
31018;SDS011;17689;45.610;5.858;2022-10-23T14:12:38;5.43;;;2.70;;
31018;SDS011;17689;45.610;5.858;2022-10-23T14:15:05;7.27;;;3.50;;
31018;SDS011;17689;45.610;5.858;2022-10-23T14:17:31;4.30;;;2.97;;
31018;SDS011;17689;45.610;5.858;2022-10-23T14:19:58;8.03;;;3.20;;
31018;SDS011;17689;45.610;5.858;2022-10-23T14:22:25;6.17;;;3.10;;
31018;SDS011;17689;45.610;5.858;2022-10-23T14:24:51;8.67;;;5.13;;
31018;SDS011;17689;45.610;5.858;2022-10-23T14:27:18;7.60;;;4.53;;
31018;SDS011;17689;45.610;5.858;2022-10-23T14:29:44;8.73;;;4.53;;
31018;SDS011;17689;45.610;5.858;2022-10-23T14:32:10;8.83;;;4.17;;
31018;SDS011;17689;45.610;5.858;2022-10-23T14:34:40;5.47;;;3.33;;
31018;SDS011;17689;45.610;5.858;2022-10-23T14:37:07;9.90;;;3.97;;
31018;SDS011;17689;45.610;5.858;2022-10-23T14:39:33;8.13;;;4.00;;
31018;SDS011;17689;45.610;5.858;2022-10-23T14:41:59;5.33;;;3.67;;
31018;SDS011;17689;45.610;5.858;2022-10-23T14:44:25;5.37;;;3.20;;
31018;SDS011;17689;45.610;5.858;2022-10-23T14:46:51;6.17;;;3.40;;
31018;SDS011;17689;45.610;5.858;2022-10-23T14:49:17;7.97;;;3.37;;
31018;SDS011;17689;45.610;5.858;2022-10-23T14:51:44;6.67;;;3.13;;
31018;SDS011;17689;45.610;5.858;2022-10-23T14:54:10;3.93;;;2.97;;
31018;SDS011;17689;45.610;5.858;2022-10-23T14:56:36;8.20;;;3.33;;
31018;SDS011;17689;45.610;5.858;2022-10-23T14:59:06;5.97;;;3.37;;
31018;SDS011;17689;45.610;5.858;2022-10-23T15:01:35;5.03;;;3.17;;
31018;SDS011;17689;45.610;5.858;2022-10-23T15:04:02;6.13;;;3.43;;
31018;SDS011;17689;45.610;5.858;2022-10-23T15:06:29;4.13;;;3.00;;
31018;SDS011;17689;45.610;5.858;2022-10-23T15:08:55;9.80;;;3.47;;
31018;SDS011;17689;45.610;5.858;2022-10-23T15:11:22;7.57;;;3.60;;
31018;SDS011;17689;45.610;5.858;2022-10-23T15:13:49;7.20;;;3.33;;
31018;SDS011;17689;45.610;5.858;2022-10-23T15:16:15;5.33;;;3.20;;
31018;SDS011;17689;45.610;5.858;2022-10-23T15:18:42;14.90;;;4.57;;
31018;SDS011;17689;45.610;5.858;2022-10-23T15:21:08;11.03;;;3.77;;
31018;SDS011;17689;45.610;5.858;2022-10-23T15:23:39;8.77;;;3.60;;
31018;SDS011;17689;45.610;5.858;2022-10-23T15:26:07;9.97;;;3.83;;
31018;SDS011;17689;45.610;5.858;2022-10-23T15:28:33;14.00;;;6.10;;
31018;SDS011;17689;45.610;5.858;2022-10-23T15:31:00;14.07;;;7.27;;
31018;SDS011;17689;45.610;5.858;2022-10-23T15:33:26;8.67;;;5.40;;
31018;SDS011;17689;45.610;5.858;2022-10-23T15:35:53;6.70;;;3.63;;
31018;SDS011;17689;45.610;5.858;2022-10-23T15:38:19;9.07;;;4.10;;
31018;SDS011;17689;45.610;5.858;2022-10-23T15:40:46;6.50;;;3.30;;
31018;SDS011;17689;45.610;5.858;2022-10-23T15:43:13;6.80;;;3.73;;
31018;SDS011;17689;45.610;5.858;2022-10-23T15:45:40;7.10;;;3.30;;
31018;SDS011;17689;45.610;5.858;2022-10-23T15:48:06;8.37;;;3.43;;
31018;SDS011;17689;45.610;5.858;2022-10-23T15:50:33;9.83;;;3.50;;
31018;SDS011;17689;45.610;5.858;2022-10-23T15:53:00;14.57;;;4.40;;
31018;SDS011;17689;45.610;5.858;2022-10-23T15:55:26;17.97;;;5.97;;
31018;SDS011;17689;45.610;5.858;2022-10-23T15:57:53;16.83;;;5.00;;
31018;SDS011;17689;45.610;5.858;2022-10-23T16:00:19;15.87;;;5.60;;
31018;SDS011;17689;45.610;5.858;2022-10-23T16:02:45;13.80;;;5.20;;
31018;SDS011;17689;45.610;5.858;2022-10-23T16:05:11;15.10;;;5.70;;
31018;SDS011;17689;45.610;5.858;2022-10-23T16:07:38;15.30;;;5.73;;
31018;SDS011;17689;45.610;5.858;2022-10-23T16:10:04;11.90;;;4.47;;
31018;SDS011;17689;45.610;5.858;2022-10-23T16:12:30;11.93;;;5.00;;
31018;SDS011;17689;45.610;5.858;2022-10-23T16:14:56;18.30;;;5.43;;
31018;SDS011;17689;45.610;5.858;2022-10-23T16:17:23;17.10;;;6.20;;
31018;SDS011;17689;45.610;5.858;2022-10-23T16:19:49;16.40;;;5.30;;
31018;SDS011;17689;45.610;5.858;2022-10-23T16:22:15;21.87;;;7.10;;
31018;SDS011;17689;45.610;5.858;2022-10-23T16:24:41;21.23;;;7.70;;
31018;SDS011;17689;45.610;5.858;2022-10-23T16:27:08;18.40;;;7.30;;
31018;SDS011;17689;45.610;5.858;2022-10-23T16:29:34;27.10;;;8.70;;
31018;SDS011;17689;45.610;5.858;2022-10-23T16:32:00;24.87;;;8.20;;
31018;SDS011;17689;45.610;5.858;2022-10-23T16:34:26;23.23;;;8.13;;
31018;SDS011;17689;45.610;5.858;2022-10-23T16:36:52;21.93;;;7.57;;
31018;SDS011;17689;45.610;5.858;2022-10-23T16:39:18;19.23;;;7.67;;
31018;SDS011;17689;45.610;5.858;2022-10-23T16:41:45;22.83;;;7.57;;
31018;SDS011;17689;45.610;5.858;2022-10-23T16:44:11;19.37;;;7.80;;